Latest  Newer  Older  Last 2 hours slideshow  Last 24 hours slideshow  Refresh every 5 minutes 
Current image  Latest image  Rain/snow radar  Cloud coverage sat images 

All time is UTC (add 2 hours to UTC in wintertime, 3 hours to UTC in DST for Latvia local time)

2022/06/30 13:20 EVRA 301320Z 14005KT 100V170 9999 FEW030 28/20 Q1017 NOSIG
2022/06/30 13:20 EVLA 301320Z AUTO 26007KT CAVOK 22/19 Q1016
2022/06/30 13:20 EVVA 301320Z AUTO 31005KT 9999 FEW042 23/21 Q1016
2022/06/30 13:20 EYKA 301320Z 09007KT 060V120 9999 FEW035 29/22 Q1016
2022/06/30 13:20 EYPA 301320Z 31003KT 200V360 CAVOK 24/20 Q1016
2022/06/30 13:20 EYSA 301320Z 10009KT 070V140 9999 FEW027 27/21 Q1017 NOSIG
2022/06/30 13:20 EYVI 301320Z 10007KT 9999 SCT036 26/19 Q1018 NOSIG
2022/06/30 13:20 EEKA 301320Z 04006KT 350V090 CAVOK 25/20 Q1018
2022/06/30 13:20 EEKE 301320Z 12011KT CAVOK 26/20 Q1017
2022/06/30 13:20 EEPU 301320Z AUTO 13006KT 9999 SCT240/// 28/17 Q1018
2022/06/30 13:20 EETN 301320Z 06013KT 9999 FEW040 27/13 Q1019 NOSIG
2022/06/30 13:20 EETU 301320Z 08006KT 030V130 CAVOK 27/16 Q1019
   RIGA AIRPORT     EVRA               56 55N  023 58E   10   X     T          6 LV
   LIEPAJA INTL     EVLA        26406  56 31N  021 06E    4   X                8 LV
   VENTPILS         EVVA               57 21N  021 33E    6   X                8 LV
   KAUNAS           EYKA               54 54N  023 55E   77   X     T          6 LT
   PALANGA INTL     EYPA               55 55N  021 03E   10   X                6 LT
   SIAULIAI INTL    EYSA               55 54N  023 24E  135   X     T          6 LT
   VILNIUS INTL     EYVI        26730  54 38N  025 17E  197   X     T          6 LT
   KARDLA           EEKA        26116  58 59N  022 50E    4   X                8 EE
   KURESSAARE       EEKE               58 14N  022 31E    4   X                8 EE
   PARNU            EEPU               58 25N  024 28E   14   X                8 EE
   TALLINN          EETN        26038  59 24N  024 49E   40   X     T          8 EE
   TARTU            EETU               58 19N  026 41E   67   X                8 EE